Time;durP1;ratioP1;P1;durP2;ratioP2;P2;SDS_P1;SDS_P2;PMS_P1;PMS_P2;Temp;Humidity;BMP_temperature;BMP_pressure;BME280_temperature;BME280_humidity;BME280_pressure;Samples;Min_cycle;Max_cycle;Signal;HPM_P1;HPM_P2
2022/11/01 00:01:00;;;;;;;;;;;13.70;99.90;;;;;;5055339;28;19932;-58
2022/11/01 00:03:27;;;;;;;;;;;13.80;99.90;;;;;;5055823;28;20486;-57
2022/11/01 00:05:55;;;;;;;;;;;13.80;99.90;;;;;;5055026;28;19929;-57
2022/11/01 00:08:21;;;;;;;;;;;13.80;99.90;;;;;;5055509;28;20039;-57
2022/11/01 00:10:48;;;;;;;;;;;13.80;99.90;;;;;;5055168;28;19932;-57
2022/11/01 00:13:15;;;;;;;;;;;13.90;99.90;;;;;;5056130;28;20522;-58
2022/11/01 00:15:42;;;;;;;;;;;13.90;99.90;;;;;;5055385;28;19932;-57
2022/11/01 00:18:09;;;;;;;;;;;13.90;99.90;;;;;;5055637;28;20125;-57
2022/11/01 00:20:35;;;;;;;;;;;13.90;99.90;;;;;;5055105;28;19933;-57
2022/11/01 00:23:03;;;;;;;;;;;13.90;99.90;;;;;;5055300;28;22234;-57
2022/11/01 00:25:30;;;;;;;;;;;14.00;99.90;;;;;;5054828;28;19928;-57
2022/11/01 00:27:57;;;;;;;;;;;14.00;99.90;;;;;;5055411;28;19936;-57
2022/11/01 00:30:23;;;;;;;;;;;14.00;99.90;;;;;;5054752;28;19936;-57
2022/11/01 00:32:50;;;;;;;;;;;14.00;99.90;;;;;;5054983;28;19929;-57
2022/11/01 00:35:17;;;;;;;;;;;14.00;99.90;;;;;;5056110;28;20400;-58
2022/11/01 00:37:43;;;;;;;;;;;14.00;99.90;;;;;;5054604;28;19940;-57
2022/11/01 00:40:12;;;;;;;;;;;14.00;99.90;;;;;;5054852;28;19938;-57
2022/11/01 00:42:38;;;;;;;;;;;14.00;99.90;;;;;;5055238;28;19929;-57
2022/11/01 00:45:05;;;;;;;;;;;14.00;99.90;;;;;;5055090;28;20058;-57
2022/11/01 00:47:32;;;;;;;;;;;14.00;99.90;;;;;;5054678;28;19928;-57
2022/11/01 00:49:58;;;;;;;;;;;14.10;99.90;;;;;;5054036;28;20700;-57
2022/11/01 00:52:25;;;;;;;;;;;14.10;99.90;;;;;;5055173;28;21091;-57
2022/11/01 00:54:52;;;;;;;;;;;14.10;99.90;;;;;;5053844;28;19936;-57
2022/11/01 00:57:20;;;;;;;;;;;14.10;99.90;;;;;;5053856;28;20482;-57
2022/11/01 00:59:47;;;;;;;;;;;14.10;99.90;;;;;;5054873;28;20442;-57
2022/11/01 01:02:13;;;;;;;;;;;14.20;99.90;;;;;;5055451;28;19965;-57
2022/11/01 01:04:42;;;;;;;;;;;14.20;99.90;;;;;;5055624;28;19936;-58
2022/11/01 01:07:09;;;;;;;;;;;14.20;99.90;;;;;;5056435;28;19928;-57
2022/11/01 01:09:35;;;;;;;;;;;14.20;99.90;;;;;;5056577;28;19939;-58
2022/11/01 01:12:02;;;;;;;;;;;14.20;99.90;;;;;;5055693;28;19928;-57
2022/11/01 01:14:30;;;;;;;;;;;14.20;99.90;;;;;;5058359;28;19928;-57
2022/11/01 01:16:57;;;;;;;;;;;14.20;99.90;;;;;;5059131;28;19933;-57
2022/11/01 01:19:24;;;;;;;;;;;14.20;99.90;;;;;;5058233;28;20248;-57
2022/11/01 01:21:50;;;;;;;;;;;14.20;99.90;;;;;;5058613;28;19978;-57
2022/11/01 01:24:17;;;;;;;;;;;14.30;99.90;;;;;;5058178;28;19939;-57
2022/11/01 01:26:44;;;;;;;;;;;14.30;99.90;;;;;;5058050;28;19935;-57
2022/11/01 01:29:10;;;;;;;;;;;14.30;99.90;;;;;;5058474;28;19954;-57
2022/11/01 01:31:38;;;;;;;;;;;14.30;99.90;;;;;;5058819;28;19929;-58
2022/11/01 01:34:05;;;;;;;;;;;14.40;99.90;;;;;;5058827;28;19929;-57
2022/11/01 01:36:32;;;;;;;;;;;14.40;99.90;;;;;;5058958;28;20304;-57
2022/11/01 01:38:58;;;;;;;;;;;14.40;99.90;;;;;;5057623;28;19933;-57
2022/11/01 01:44:28;;;;;;;;;;;14.40;99.90;;;;;;5058301;28;19977;-57
2022/11/01 01:46:56;;;;;;;;;;;14.50;99.90;;;;;;5058959;28;19935;-57
2022/11/01 01:49:23;;;;;;;;;;;14.50;99.90;;;;;;5056088;28;19940;-57
2022/11/01 01:51:50;;;;;;;;;;;14.50;99.90;;;;;;5057931;28;19928;-57
2022/11/01 01:54:16;;;;;;;;;;;14.50;99.90;;;;;;5057089;28;20045;-57
2022/11/01 01:56:43;;;;;;;;;;;14.50;99.90;;;;;;5058706;28;19940;-57
2022/11/01 01:59:10;;;;;;;;;;;14.60;99.90;;;;;;5058473;28;19932;-57
2022/11/01 02:01:38;;;;;;;;;;;14.60;99.90;;;;;;5059080;28;21006;-57
2022/11/01 02:04:08;;;;;;;;;;;14.60;99.90;;;;;;5058445;28;20390;-57
2022/11/01 02:06:35;;;;;;;;;;;14.60;99.90;;;;;;5058611;28;19935;-57
2022/11/01 02:09:03;;;;;;;;;;;14.60;99.90;;;;;;5058148;28;19939;-57
2022/11/01 02:11:30;;;;;;;;;;;14.70;99.90;;;;;;5058181;28;20299;-57
2022/11/01 02:13:57;;;;;;;;;;;14.60;99.90;;;;;;5056743;28;19929;-57
2022/11/01 02:16:33;;;;;;;;;;;14.60;99.90;;;;;;5057260;28;19933;-57
2022/11/01 02:19:06;;;;;;;;;;;14.60;99.90;;;;;;5057527;28;19932;-57
2022/11/01 02:21:44;;;;;;;;;;;14.60;99.90;;;;;;5057915;28;20371;-57
2022/11/01 02:24:45;;;;;;;;;;;14.60;99.90;;;;;;5055960;28;20494;-57
2022/11/01 02:27:14;;;;;;;;;;;14.70;99.90;;;;;;4974739;28;19929;-57
2022/11/01 02:29:52;;;;;;;;;;;14.70;99.90;;;;;;4974448;28;19933;-57
2022/11/01 02:32:22;;;;;;;;;;;14.70;99.90;;;;;;5018068;28;19933;-57
2022/11/01 02:34:53;;;;;;;;;;;14.70;99.90;;;;;;5056133;28;19935;-57
2022/11/01 02:37:27;;;;;;;;;;;14.70;99.90;;;;;;5057794;28;19929;-57
2022/11/01 02:39:57;;;;;;;;;;;14.70;99.90;;;;;;5057892;28;19933;-57
2022/11/01 02:42:27;;;;;;;;;;;14.70;99.90;;;;;;5058059;28;19935;-57
2022/11/01 02:44:57;;;;;;;;;;;14.70;99.90;;;;;;5057600;28;19936;-57
2022/11/01 02:47:27;;;;;;;;;;;14.70;99.90;;;;;;5057815;28;19935;-58
2022/11/01 02:49:56;;;;;;;;;;;14.70;99.90;;;;;;5057307;28;19934;-57
2022/11/01 02:52:23;;;;;;;;;;;14.70;99.90;;;;;;5057329;28;19979;-57
2022/11/01 02:54:51;;;;;;;;;;;14.70;99.90;;;;;;5057140;28;19929;-57
2022/11/01 02:57:26;;;;;;;;;;;14.80;99.90;;;;;;5056883;28;20411;-57
2022/11/01 03:00:00;;;;;;;;;;;14.70;99.90;;;;;;5057145;28;19943;-57
2022/11/01 03:02:39;;;;;;;;;;;14.70;99.90;;;;;;5055799;28;19928;-57
2022/11/01 03:05:07;;;;;;;;;;;14.80;99.90;;;;;;5057433;28;19929;-57
2022/11/01 03:07:34;;;;;;;;;;;14.70;99.90;;;;;;5057097;28;20311;-57
2022/11/01 03:10:04;;;;;;;;;;;14.70;99.90;;;;;;5055823;28;19968;-57
2022/11/01 03:12:33;;;;;;;;;;;14.70;99.90;;;;;;5057323;28;19936;-57
2022/11/01 03:15:02;;;;;;;;;;;14.70;99.90;;;;;;5055824;28;19928;-57
2022/11/01 03:17:33;;;;;;;;;;;14.80;99.90;;;;;;5056592;28;19929;-57
2022/11/01 03:20:02;;;;;;;;;;;14.70;99.90;;;;;;5057374;28;19933;-57
2022/11/01 03:22:30;;;;;;;;;;;14.70;99.90;;;;;;5057343;28;20295;-57
2022/11/01 03:25:02;;;;;;;;;;;14.70;99.90;;;;;;5057326;28;20487;-57
2022/11/01 03:27:33;;;;;;;;;;;14.80;99.90;;;;;;5057303;28;22254;-57
2022/11/01 03:30:02;;;;;;;;;;;14.80;99.90;;;;;;5056325;28;21112;-57
2022/11/01 03:32:33;;;;;;;;;;;14.70;99.90;;;;;;5055688;28;20296;-57
2022/11/01 03:35:01;;;;;;;;;;;14.80;99.90;;;;;;5057046;28;19929;-57
2022/11/01 03:37:28;;;;;;;;;;;14.80;99.90;;;;;;5055708;28;19929;-57
2022/11/01 03:39:56;;;;;;;;;;;14.80;99.90;;;;;;5056496;28;19967;-57
2022/11/01 03:42:23;;;;;;;;;;;14.80;99.90;;;;;;5057061;28;19929;-57
2022/11/01 03:44:54;;;;;;;;;;;14.80;99.90;;;;;;5055004;28;19982;-57
2022/11/01 03:47:20;;;;;;;;;;;14.80;99.90;;;;;;5056608;28;19939;-57
2022/11/01 03:49:48;;;;;;;;;;;14.80;99.90;;;;;;5054688;28;19933;-57
2022/11/01 03:52:15;;;;;;;;;;;14.90;99.90;;;;;;5057799;28;19928;-57
2022/11/01 03:54:41;;;;;;;;;;;14.90;99.90;;;;;;5056501;28;19936;-57
2022/11/01 03:57:08;;;;;;;;;;;14.90;99.90;;;;;;5056489;28;19929;-57
2022/11/01 03:59:35;;;;;;;;;;;14.90;99.90;;;;;;5056660;28;19944;-57
2022/11/01 04:02:01;;;;;;;;;;;14.90;99.90;;;;;;5055951;28;19928;-57
2022/11/01 04:04:28;;;;;;;;;;;14.90;99.90;;;;;;5052424;28;20403;-57
2022/11/01 04:06:56;;;;;;;;;;;14.90;99.90;;;;;;5056083;28;19935;-57
2022/11/01 04:09:22;;;;;;;;;;;14.90;99.90;;;;;;5056889;28;19990;-57
2022/11/01 04:11:49;;;;;;;;;;;14.90;99.90;;;;;;5056696;28;20718;-57
2022/11/01 04:22:36;;;;;;;;;;;15.00;99.90;;;;;;5055721;28;20316;-57
2022/11/01 04:25:03;;;;;;;;;;;15.00;99.90;;;;;;5055931;28;19935;-57
2022/11/01 04:27:30;;;;;;;;;;;15.00;99.90;;;;;;5053817;28;20327;-57
2022/11/01 04:29:56;;;;;;;;;;;15.00;99.90;;;;;;5055592;28;19932;-57
2022/11/01 04:32:23;;;;;;;;;;;15.10;99.90;;;;;;5056745;28;19936;-57
2022/11/01 04:34:49;;;;;;;;;;;15.10;99.90;;;;;;5055830;28;20383;-57
2022/11/01 04:37:16;;;;;;;;;;;15.10;99.90;;;;;;5055401;28;20505;-57
2022/11/01 04:39:44;;;;;;;;;;;15.10;99.90;;;;;;5055202;28;19933;-57
2022/11/01 04:42:11;;;;;;;;;;;15.10;99.90;;;;;;5055149;28;21818;-57
2022/11/01 04:44:37;;;;;;;;;;;15.10;99.90;;;;;;5055553;28;19928;-57
2022/11/01 04:47:04;;;;;;;;;;;15.20;99.90;;;;;;5054009;28;19929;-57
2022/11/01 04:49:31;;;;;;;;;;;15.20;99.90;;;;;;5059098;28;19955;-57
2022/11/01 04:51:57;;;;;;;;;;;15.20;99.90;;;;;;5059656;28;20397;-57
2022/11/01 04:54:24;;;;;;;;;;;15.20;99.90;;;;;;5058053;28;19929;-57
2022/11/01 04:56:52;;;;;;;;;;;15.20;99.90;;;;;;5059612;28;19929;-57
2022/11/01 04:59:18;;;;;;;;;;;15.20;99.90;;;;;;5059878;28;19933;-57
2022/11/01 05:01:45;;;;;;;;;;;15.20;99.90;;;;;;5056888;28;20083;-57
2022/11/01 05:04:12;;;;;;;;;;;15.20;99.90;;;;;;5059609;28;22127;-57
2022/11/01 05:06:38;;;;;;;;;;;15.20;99.90;;;;;;5057646;28;19935;-57
2022/11/01 05:09:05;;;;;;;;;;;15.30;99.90;;;;;;5059111;28;19933;-57
2022/11/01 05:11:32;;;;;;;;;;;15.30;99.90;;;;;;5060011;28;19967;-57
2022/11/01 05:13:59;;;;;;;;;;;15.30;99.90;;;;;;5058606;28;19935;-57
2022/11/01 05:16:26;;;;;;;;;;;15.30;99.90;;;;;;5059291;28;19928;-57
2022/11/01 05:18:53;;;;;;;;;;;15.30;99.90;;;;;;5058814;28;19932;-57
2022/11/01 05:21:19;;;;;;;;;;;15.30;99.90;;;;;;5059246;28;19936;-57
2022/11/01 05:23:47;;;;;;;;;;;15.30;99.90;;;;;;5058900;28;20764;-57
2022/11/01 05:26:14;;;;;;;;;;;15.30;99.90;;;;;;5059394;28;19935;-57
2022/11/01 05:28:40;;;;;;;;;;;15.30;99.90;;;;;;5059280;28;19932;-57
2022/11/01 05:31:08;;;;;;;;;;;15.30;99.90;;;;;;5057820;28;19936;-57
2022/11/01 05:33:35;;;;;;;;;;;15.30;99.90;;;;;;5058341;28;19932;-57
2022/11/01 05:36:01;;;;;;;;;;;15.30;99.90;;;;;;5056858;28;21320;-57
2022/11/01 05:38:28;;;;;;;;;;;15.30;99.90;;;;;;5056227;28;20039;-57
2022/11/01 05:40:55;;;;;;;;;;;15.30;99.90;;;;;;5057376;28;19929;-57
2022/11/01 05:43:21;;;;;;;;;;;15.30;99.90;;;;;;5057471;28;19974;-57
2022/11/01 05:45:48;;;;;;;;;;;15.30;99.90;;;;;;5059384;28;19928;-57
2022/11/01 05:48:16;;;;;;;;;;;15.20;99.90;;;;;;5058040;28;22069;-57
2022/11/01 05:50:43;;;;;;;;;;;15.20;99.90;;;;;;5057463;28;19929;-57
2022/11/01 05:53:10;;;;;;;;;;;15.20;99.90;;;;;;5057551;28;19935;-57
2022/11/01 05:55:37;;;;;;;;;;;15.20;99.90;;;;;;5055501;28;19937;-57
2022/11/01 05:58:04;;;;;;;;;;;15.10;99.90;;;;;;5055062;28;19933;-57
2022/11/01 06:00:31;;;;;;;;;;;15.10;99.90;;;;;;5051621;28;19935;-57
2022/11/01 06:02:58;;;;;;;;;;;15.10;99.90;;;;;;5053888;28;19928;-57
2022/11/01 06:05:27;;;;;;;;;;;15.00;99.90;;;;;;5052744;28;19939;-56
2022/11/01 06:07:54;;;;;;;;;;;15.00;99.90;;;;;;5051799;28;20604;-57
2022/11/01 06:10:20;;;;;;;;;;;15.00;99.90;;;;;;5054072;28;19929;-57
2022/11/01 06:12:47;;;;;;;;;;;14.90;99.90;;;;;;5053700;28;19935;-57
2022/11/01 06:15:16;;;;;;;;;;;14.90;99.90;;;;;;5053714;28;19929;-57
2022/11/01 06:17:43;;;;;;;;;;;14.80;99.90;;;;;;5053138;28;20027;-57
2022/11/01 06:20:11;;;;;;;;;;;14.80;99.90;;;;;;5053724;28;19929;-57
2022/11/01 06:22:39;;;;;;;;;;;14.70;99.90;;;;;;5055153;28;19928;-57
2022/11/01 06:25:07;;;;;;;;;;;14.70;99.90;;;;;;5056349;28;19936;-61
2022/11/01 06:27:33;;;;;;;;;;;14.70;99.90;;;;;;5056174;28;20426;-61
2022/11/01 06:30:00;;;;;;;;;;;14.60;99.90;;;;;;5054615;28;20418;-61
2022/11/01 06:32:26;;;;;;;;;;;14.60;99.90;;;;;;5054780;28;21722;-62
2022/11/01 06:34:53;;;;;;;;;;;14.50;99.90;;;;;;5055429;28;19928;-61
2022/11/01 06:37:20;;;;;;;;;;;14.50;99.90;;;;;;5056580;28;19936;-61
2022/11/01 06:39:48;;;;;;;;;;;14.50;99.90;;;;;;5056727;28;19929;-61
2022/11/01 06:42:14;;;;;;;;;;;14.40;99.90;;;;;;5054851;28;20609;-61
2022/11/01 06:44:41;;;;;;;;;;;14.40;99.90;;;;;;5055212;28;19935;-61
2022/11/01 06:47:08;;;;;;;;;;;14.40;99.90;;;;;;5056256;28;19933;-61
2022/11/01 06:49:34;;;;;;;;;;;14.40;99.90;;;;;;5055393;28;19928;-61
2022/11/01 06:52:02;;;;;;;;;;;14.30;99.90;;;;;;5055840;28;19935;-61
2022/11/01 06:54:28;;;;;;;;;;;14.30;99.90;;;;;;5056914;28;19994;-61
2022/11/01 06:56:56;;;;;;;;;;;14.30;99.90;;;;;;5056161;28;19994;-61
2022/11/01 06:59:23;;;;;;;;;;;14.20;99.90;;;;;;5056625;28;19929;-61
2022/11/01 07:01:50;;;;;;;;;;;14.20;99.90;;;;;;5055448;28;20658;-61
2022/11/01 07:04:17;;;;;;;;;;;14.20;99.90;;;;;;5054142;28;19929;-61
2022/11/01 07:06:44;;;;;;;;;;;14.10;99.90;;;;;;5053160;28;19939;-61
2022/11/01 07:09:11;;;;;;;;;;;14.10;99.90;;;;;;5055770;28;19954;-61
2022/11/01 07:11:38;;;;;;;;;;;14.10;99.90;;;;;;5054410;28;21707;-61
2022/11/01 07:14:06;;;;;;;;;;;14.10;99.90;;;;;;5053087;28;19940;-61
2022/11/01 07:16:33;;;;;;;;;;;14.10;99.90;;;;;;5055073;28;19933;-62
2022/11/01 07:18:59;;;;;;;;;;;14.00;99.90;;;;;;5054679;28;20227;-61
2022/11/01 07:21:26;;;;;;;;;;;14.00;99.90;;;;;;5055359;28;19928;-61
2022/11/01 07:23:53;;;;;;;;;;;14.00;99.90;;;;;;5053932;28;19934;-61
2022/11/01 07:26:19;;;;;;;;;;;14.00;99.90;;;;;;5054405;28;20067;-61
2022/11/01 07:28:46;;;;;;;;;;;14.00;99.90;;;;;;5055939;28;19971;-61
2022/11/01 07:31:14;;;;;;;;;;;14.00;99.90;;;;;;5055071;28;20007;-61
2022/11/01 07:33:41;;;;;;;;;;;14.10;99.90;;;;;;5053565;28;19976;-61
2022/11/01 07:36:08;;;;;;;;;;;14.10;99.90;;;;;;5053258;28;19933;-61
2022/11/01 07:38:34;;;;;;;;;;;14.10;99.90;;;;;;5055136;28;20419;-61
2022/11/01 07:41:03;;;;;;;;;;;14.10;99.90;;;;;;5054952;28;19935;-61
2022/11/01 07:43:29;;;;;;;;;;;14.20;99.90;;;;;;5055536;28;20070;-61
2022/11/01 07:45:58;;;;;;;;;;;14.20;99.90;;;;;;5054516;28;19932;-61
2022/11/01 07:48:26;;;;;;;;;;;14.20;99.90;;;;;;5054875;28;19935;-61
2022/11/01 07:50:55;;;;;;;;;;;14.20;99.90;;;;;;5055687;28;19929;-61
2022/11/01 07:53:22;;;;;;;;;;;14.30;99.90;;;;;;5055659;28;19928;-61
2022/11/01 07:55:48;;;;;;;;;;;14.40;99.90;;;;;;5055202;28;19939;-61
2022/11/01 07:58:16;;;;;;;;;;;14.50;99.90;;;;;;5055478;28;19936;-61
2022/11/01 08:00:43;;;;;;;;;;;14.50;99.90;;;;;;5056653;28;19928;-61
2022/11/01 08:03:11;;;;;;;;;;;14.50;99.60;;;;;;5057794;28;19928;-61
2022/11/01 08:05:39;;;;;;;;;;;14.50;99.40;;;;;;5057489;28;20011;-61
2022/11/01 08:08:06;;;;;;;;;;;14.60;99.90;;;;;;5056452;28;20094;-61
2022/11/01 08:10:33;;;;;;;;;;;14.60;99.90;;;;;;5056653;28;19936;-61
2022/11/01 08:13:01;;;;;;;;;;;14.60;99.90;;;;;;5055592;28;19987;-61
2022/11/01 08:15:28;;;;;;;;;;;14.60;99.70;;;;;;5054636;28;20900;-61
2022/11/01 08:17:54;;;;;;;;;;;14.50;99.90;;;;;;5055261;28;19935;-61
2022/11/01 08:20:21;;;;;;;;;;;14.60;99.90;;;;;;5054906;28;20424;-61
2022/11/01 08:22:49;;;;;;;;;;;14.50;99.80;;;;;;5057199;28;19928;-61
2022/11/01 08:25:16;;;;;;;;;;;14.60;99.90;;;;;;5059224;28;19939;-61
2022/11/01 08:27:42;;;;;;;;;;;14.60;99.70;;;;;;5058886;28;20374;-61
2022/11/01 08:30:09;;;;;;;;;;;14.60;99.50;;;;;;5057815;28;19951;-60
2022/11/01 08:32:36;;;;;;;;;;;14.60;99.80;;;;;;5058109;28;20796;-60
2022/11/01 08:35:03;;;;;;;;;;;14.70;99.90;;;;;;5058645;28;20018;-60
2022/11/01 08:37:29;;;;;;;;;;;14.60;99.60;;;;;;5060444;28;22172;-60
2022/11/01 08:39:57;;;;;;;;;;;14.70;99.90;;;;;;5059504;28;20452;-60
2022/11/01 08:42:24;;;;;;;;;;;14.70;99.90;;;;;;5058070;28;20034;-61
2022/11/01 08:44:51;;;;;;;;;;;14.70;99.80;;;;;;5057035;28;19939;-60
2022/11/01 08:47:17;;;;;;;;;;;14.60;99.60;;;;;;5058245;28;20243;-61
2022/11/01 08:49:44;;;;;;;;;;;14.60;99.40;;;;;;5057856;28;19928;-61
2022/11/01 08:52:11;;;;;;;;;;;14.60;99.60;;;;;;5057909;28;20056;-61
2022/11/01 08:54:37;;;;;;;;;;;14.60;99.30;;;;;;5058148;28;20461;-60
2022/11/01 08:57:05;;;;;;;;;;;14.50;99.10;;;;;;5058411;28;20319;-61
2022/11/01 08:59:32;;;;;;;;;;;14.50;99.40;;;;;;5057821;28;20418;-61
2022/11/01 09:01:59;;;;;;;;;;;14.50;99.20;;;;;;5057359;28;20303;-60
2022/11/01 09:04:26;;;;;;;;;;;14.50;99.30;;;;;;5057789;28;19932;-61
2022/11/01 09:06:52;;;;;;;;;;;14.50;99.30;;;;;;5057745;28;19960;-61
2022/11/01 09:09:19;;;;;;;;;;;14.60;99.70;;;;;;5058911;28;20786;-61
2022/11/01 09:11:46;;;;;;;;;;;14.60;99.60;;;;;;5060250;28;19929;-61
2022/11/01 09:14:14;;;;;;;;;;;14.70;99.50;;;;;;5058750;28;19933;-60
2022/11/01 09:16:40;;;;;;;;;;;14.80;99.20;;;;;;5059429;28;21281;-60
2022/11/01 09:19:07;;;;;;;;;;;14.90;99.00;;;;;;5059253;28;19963;-60
2022/11/01 09:21:34;;;;;;;;;;;14.90;99.20;;;;;;5057934;28;20487;-60
2022/11/01 09:24:00;;;;;;;;;;;15.00;98.70;;;;;;5058428;28;19944;-61
2022/11/01 09:26:28;;;;;;;;;;;15.00;99.10;;;;;;5057988;28;19929;-61
2022/11/01 09:28:57;;;;;;;;;;;15.10;98.70;;;;;;5058352;28;20075;-61
2022/11/01 09:31:25;;;;;;;;;;;15.10;99.10;;;;;;5058292;28;20462;-61
2022/11/01 09:33:53;;;;;;;;;;;15.30;98.80;;;;;;5057989;28;19932;-60
2022/11/01 09:36:20;;;;;;;;;;;15.20;98.50;;;;;;5058690;28;20641;-61
2022/11/01 09:38:47;;;;;;;;;;;15.30;98.70;;;;;;5057956;28;19928;-60
2022/11/01 09:41:16;;;;;;;;;;;15.30;98.90;;;;;;5057895;28;19935;-61
2022/11/01 09:43:43;;;;;;;;;;;15.30;98.70;;;;;;5057975;28;19933;-60
2022/11/01 09:46:13;;;;;;;;;;;15.30;98.50;;;;;;5057805;28;19939;-61
2022/11/01 09:48:42;;;;;;;;;;;15.30;98.70;;;;;;5057655;28;19928;-61
2022/11/01 09:51:12;;;;;;;;;;;15.30;98.50;;;;;;5057585;28;19929;-61
2022/11/01 09:53:39;;;;;;;;;;;15.30;98.80;;;;;;5058891;28;20024;-60
2022/11/01 09:56:09;;;;;;;;;;;15.40;99.40;;;;;;5057452;28;19935;-61
2022/11/01 09:58:41;;;;;;;;;;;15.60;98.80;;;;;;5057969;28;19944;-61
2022/11/01 10:01:16;;;;;;;;;;;15.70;98.70;;;;;;5057224;28;21809;-61
2022/11/01 10:03:49;;;;;;;;;;;15.80;98.00;;;;;;5057880;28;20022;-61
2022/11/01 10:06:18;;;;;;;;;;;15.90;98.60;;;;;;5057560;28;19932;-60
2022/11/01 10:08:53;;;;;;;;;;;16.00;98.10;;;;;;5058114;28;20396;-61
2022/11/01 10:11:34;;;;;;;;;;;16.00;98.10;;;;;;5057595;28;20040;-60
2022/11/01 10:14:06;;;;;;;;;;;16.10;97.90;;;;;;5058738;28;19978;-61
2022/11/01 10:16:35;;;;;;;;;;;16.10;97.90;;;;;;5058684;28;19936;-61
2022/11/01 10:19:04;;;;;;;;;;;16.20;98.10;;;;;;5056915;28;19928;-60
2022/11/01 10:21:34;;;;;;;;;;;16.10;98.10;;;;;;5057567;28;20403;-60
2022/11/01 10:24:02;;;;;;;;;;;16.10;98.40;;;;;;5057026;28;19933;-61
2022/11/01 10:26:29;;;;;;;;;;;16.10;98.30;;;;;;5057358;28;20059;-61
2022/11/01 10:29:01;;;;;;;;;;;16.10;98.70;;;;;;5058825;28;19928;-61
2022/11/01 10:31:28;;;;;;;;;;;16.10;98.40;;;;;;5057956;28;20786;-61
2022/11/01 10:33:58;;;;;;;;;;;16.10;98.70;;;;;;5058712;28;19963;-61
2022/11/01 10:36:29;;;;;;;;;;;16.10;98.30;;;;;;5058498;28;20019;-61
2022/11/01 10:39:01;;;;;;;;;;;16.10;98.40;;;;;;5058646;28;19936;-61
2022/11/01 10:41:32;;;;;;;;;;;16.00;98.70;;;;;;5057860;28;20410;-61
2022/11/01 10:44:00;;;;;;;;;;;16.00;99.10;;;;;;5059105;28;19932;-61
2022/11/01 10:46:30;;;;;;;;;;;15.90;99.00;;;;;;5056750;28;20011;-61
2022/11/01 10:48:58;;;;;;;;;;;15.90;99.40;;;;;;5057042;28;19928;-61
2022/11/01 10:51:29;;;;;;;;;;;15.80;99.60;;;;;;5056668;28;20023;-61
2022/11/01 10:53:58;;;;;;;;;;;15.80;99.40;;;;;;5056046;28;19932;-61
2022/11/01 10:56:28;;;;;;;;;;;15.80;99.10;;;;;;5056898;28;20627;-61
2022/11/01 10:58:59;;;;;;;;;;;15.70;99.50;;;;;;5056726;28;21805;-61
2022/11/01 11:01:26;;;;;;;;;;;15.70;99.50;;;;;;5057236;28;20019;-61
2022/11/01 11:03:54;;;;;;;;;;;15.70;99.90;;;;;;5056578;28;20079;-62
2022/11/01 11:06:21;;;;;;;;;;;15.60;99.90;;;;;;5058771;28;19928;-61
2022/11/01 11:08:51;;;;;;;;;;;15.50;99.90;;;;;;5055743;28;20369;-61
2022/11/01 11:11:18;;;;;;;;;;;15.50;99.90;;;;;;5056606;28;20327;-60
2022/11/01 11:13:47;;;;;;;;;;;15.40;99.90;;;;;;5056439;28;19933;-61
2022/11/01 11:16:18;;;;;;;;;;;15.40;99.90;;;;;;5054961;28;19935;-61
2022/11/01 11:18:59;;;;;;;;;;;15.50;99.90;;;;;;5055834;28;20066;-61
2022/11/01 11:21:25;;;;;;;;;;;15.40;99.90;;;;;;5055635;28;21854;-61
2022/11/01 11:23:53;;;;;;;;;;;15.50;99.90;;;;;;5056543;28;20418;-61
2022/11/01 11:26:20;;;;;;;;;;;15.40;99.90;;;;;;5056492;28;19928;-61
2022/11/01 11:28:48;;;;;;;;;;;15.50;99.90;;;;;;5056356;28;19929;-61
2022/11/01 11:31:17;;;;;;;;;;;15.50;99.90;;;;;;5056395;28;19928;-61
2022/11/01 11:33:48;;;;;;;;;;;15.50;99.90;;;;;;5056049;28;19933;-61
2022/11/01 11:36:17;;;;;;;;;;;15.60;99.90;;;;;;5056423;28;20332;-61
2022/11/01 11:38:44;;;;;;;;;;;15.50;99.90;;;;;;5055516;28;19929;-61
2022/11/01 11:41:25;;;;;;;;;;;15.60;99.90;;;;;;5056736;28;20031;-61
2022/11/01 11:43:51;;;;;;;;;;;15.70;99.90;;;;;;5057051;28;20074;-61
2022/11/01 11:46:20;;;;;;;;;;;15.70;99.90;;;;;;5057566;28;20435;-61
2022/11/01 11:48:47;;;;;;;;;;;15.80;99.90;;;;;;5056759;28;20402;-60
2022/11/01 11:51:14;;;;;;;;;;;16.00;99.90;;;;;;5055732;28;20507;-61
2022/11/01 11:53:41;;;;;;;;;;;16.00;99.90;;;;;;5055214;28;19933;-61
2022/11/01 11:56:08;;;;;;;;;;;16.10;99.90;;;;;;5055363;28;19929;-61
2022/11/01 11:58:38;;;;;;;;;;;16.20;99.90;;;;;;5055562;28;20315;-60
2022/11/01 12:01:06;;;;;;;;;;;16.20;99.90;;;;;;5055164;28;20402;-61
2022/11/01 12:03:34;;;;;;;;;;;16.20;99.90;;;;;;5054657;28;20645;-61
2022/11/01 12:06:05;;;;;;;;;;;16.30;99.90;;;;;;5054314;28;20643;-61
2022/11/01 12:08:44;;;;;;;;;;;16.30;99.90;;;;;;5055477;28;19932;-60
2022/11/01 12:11:11;;;;;;;;;;;16.30;99.40;;;;;;5055144;28;19976;-61
2022/11/01 12:13:40;;;;;;;;;;;16.20;99.70;;;;;;5054706;28;19932;-61
2022/11/01 12:16:08;;;;;;;;;;;16.20;99.90;;;;;;5055428;28;21083;-61
2022/11/01 12:18:35;;;;;;;;;;;16.10;99.80;;;;;;5054627;28;19928;-61
2022/11/01 12:21:01;;;;;;;;;;;16.20;99.80;;;;;;5054133;28;20589;-62
2022/11/01 12:23:30;;;;;;;;;;;16.20;99.90;;;;;;5054468;28;19990;-61
2022/11/01 12:25:57;;;;;;;;;;;16.20;99.90;;;;;;5054513;28;19935;-60
2022/11/01 12:28:26;;;;;;;;;;;16.20;99.90;;;;;;5055301;28;20796;-60
2022/11/01 12:30:58;;;;;;;;;;;16.20;99.90;;;;;;5055359;28;20395;-61
2022/11/01 12:33:27;;;;;;;;;;;16.20;99.90;;;;;;5055307;28;19933;-61
2022/11/01 12:35:54;;;;;;;;;;;16.20;99.90;;;;;;5054634;28;19951;-57
2022/11/01 12:38:33;;;;;;;;;;;16.20;99.90;;;;;;5054269;28;19932;-57
2022/11/01 12:41:04;;;;;;;;;;;16.20;99.90;;;;;;5056328;28;20027;-57
2022/11/01 12:43:33;;;;;;;;;;;16.20;99.90;;;;;;5057520;28;19939;-57
2022/11/01 12:46:04;;;;;;;;;;;16.30;99.90;;;;;;5055784;28;19952;-57
2022/11/01 12:48:33;;;;;;;;;;;16.20;99.90;;;;;;5056825;28;20470;-57
2022/11/01 12:51:02;;;;;;;;;;;16.30;99.90;;;;;;5045466;28;19929;-57
2022/11/01 12:53:30;;;;;;;;;;;16.20;99.90;;;;;;5049082;28;19940;-57
2022/11/01 12:55:57;;;;;;;;;;;16.20;99.90;;;;;;5050807;28;20327;-57
2022/11/01 12:58:25;;;;;;;;;;;16.10;99.80;;;;;;5050583;28;19929;-57
2022/11/01 13:01:00;;;;;;;;;;;16.10;99.90;;;;;;5049858;28;20932;-57
2022/11/01 13:03:34;;;;;;;;;;;16.00;99.90;;;;;;5048088;28;21837;-57
2022/11/01 13:06:06;;;;;;;;;;;16.00;99.90;;;;;;5049317;28;19983;-57
2022/11/01 13:08:36;;;;;;;;;;;16.00;99.90;;;;;;5050512;28;19928;-57
2022/11/01 13:11:06;;;;;;;;;;;16.00;99.90;;;;;;5053696;28;20678;-57
2022/11/01 13:13:35;;;;;;;;;;;16.00;99.90;;;;;;5052571;28;20453;-61
2022/11/01 13:16:04;;;;;;;;;;;16.00;99.90;;;;;;5052520;28;19939;-57
2022/11/01 13:18:42;;;;;;;;;;;16.00;99.90;;;;;;5052501;28;20475;-61
2022/11/01 13:21:11;;;;;;;;;;;16.00;99.90;;;;;;5052633;28;21784;-61
2022/11/01 13:23:40;;;;;;;;;;;16.00;99.90;;;;;;5052126;28;20625;-61
2022/11/01 13:26:11;;;;;;;;;;;16.00;99.90;;;;;;5052917;28;20366;-61
2022/11/01 13:28:47;;;;;;;;;;;16.00;99.90;;;;;;5052522;28;19928;-61
2022/11/01 13:31:19;;;;;;;;;;;16.00;99.90;;;;;;5051205;28;19935;-61
2022/11/01 13:33:50;;;;;;;;;;;15.90;99.90;;;;;;5052809;28;19933;-61
2022/11/01 13:36:20;;;;;;;;;;;15.90;99.90;;;;;;5052412;28;19935;-61
2022/11/01 13:38:50;;;;;;;;;;;15.90;99.90;;;;;;5051795;28;20030;-61
2022/11/01 13:41:20;;;;;;;;;;;15.90;99.80;;;;;;5051556;28;20319;-61
2022/11/01 13:43:49;;;;;;;;;;;15.90;99.90;;;;;;5052078;28;19972;-61
2022/11/01 13:46:30;;;;;;;;;;;15.90;99.90;;;;;;5052770;28;19929;-61
2022/11/01 13:49:13;;;;;;;;;;;15.80;99.90;;;;;;5051808;28;19935;-61
2022/11/01 13:51:42;;;;;;;;;;;15.80;99.70;;;;;;5052138;28;19929;-61
2022/11/01 13:54:14;;;;;;;;;;;15.80;99.90;;;;;;5051842;28;19932;-61
2022/11/01 13:56:42;;;;;;;;;;;15.80;99.90;;;;;;5053327;28;19929;-61
2022/11/01 13:59:12;;;;;;;;;;;15.80;99.90;;;;;;5051830;28;20985;-61
2022/11/01 14:01:39;;;;;;;;;;;15.80;99.90;;;;;;5049081;28;19928;-61
2022/11/01 14:04:25;;;;;;;;;;;15.80;99.90;;;;;;5050591;28;19933;-61
2022/11/01 14:07:04;;;;;;;;;;;15.70;99.90;;;;;;5050938;28;19933;-61
2022/11/01 14:09:31;;;;;;;;;;;15.70;99.90;;;;;;5050814;28;20335;-60
2022/11/01 14:12:10;;;;;;;;;;;15.70;99.90;;;;;;5051293;28;19986;-61
2022/11/01 14:14:52;;;;;;;;;;;15.70;99.90;;;;;;5051466;28;20131;-61
2022/11/01 14:17:34;;;;;;;;;;;15.70;99.90;;;;;;5052752;28;19935;-61
2022/11/01 14:20:25;;;;;;;;;;;15.60;99.90;;;;;;5038054;28;19932;-61
2022/11/01 14:22:53;;;;;;;;;;;15.70;99.90;;;;;;5039941;28;19928;-61
2022/11/01 14:25:30;;;;;;;;;;;15.60;99.50;;;;;;5050713;28;19939;-61
2022/11/01 14:28:11;;;;;;;;;;;15.60;99.70;;;;;;5052190;28;19929;-61
2022/11/01 14:30:41;;;;;;;;;;;15.60;99.70;;;;;;5051884;28;21372;-61
2022/11/01 14:33:12;;;;;;;;;;;15.60;99.90;;;;;;5049853;28;20573;-61
2022/11/01 14:35:42;;;;;;;;;;;15.60;99.70;;;;;;5051233;28;19967;-61